Kargasok, Russia
Current Conditions -  °F | °C
As of 12:30 AM on Tuesday 21 Oct 2014 (Local Time) from USNN Reporting Station
Haze Haze  
Wind Chill: 19°   Ceiling: 200
Heat Index: 25°   Visibility: 1.3mi
Dew Point: 25°   Wind: 4mph
Humidity: 100%   Direction: 110°ESE
Pressure: 29.35"   Gusts: NA
Location:  59.06°N, 80.86°E
Report Text: USNN 201730Z 11002MPS 2100 BR OVC002 M04/M04 Q0994 TEMPO 0800FZFG VV002 RMK QFE741 QBB080 03410237
Loading
Personal Weather Stations






























Interactive Weather Map
Tropical Storm Tracking
New forecast layout! Learn more

10-Day Weather Forecast

Advertisements
Track Severe Weather on mobile